Whale Point, California Weather observations

Data are for observation ending at time listed.
 Day   Time    Ave.   Ave.  Ave.  Vector   Max.   Stn.    Total    Solar   Ave.  
  of    of     Air    Rel.  Wind   Wind    Wind   Baro.  Precip.   Rad.    Soil  
Year   Day     Temp.  Hum.  Speed  Dir.    Gust   Pres.                    Temp. 
2026   (PST)    F      %     mph   deg.    mph     mb.     in.     W/m2     F   
------------------------------------------------------------------------------
 121   14:00   53.8    73    5.3   223      8.5   993.2    0.00     901    65.6
 121   14:10   55.3    72    5.3   220      8.9   993.0    0.00     850    65.7
 121   14:20   55.6    74    5.0   224      7.5   992.9    0.00     834    65.9
 121   14:30   56.3    74    4.9   228      8.1   992.8    0.00     839    66.1
 121   14:40   57.1    75    5.1   223      8.3   992.7    0.00     841    66.3
 121   14:50   58.2    73    5.2   225      9.9   992.7    0.00     831    66.4
 121   15:00   58.7    73    5.2   228      8.7   992.7    0.00     836    66.6
 121   15:10   61.0    70    2.6   242      8.9   992.6    0.00     783    66.7
 121   15:20   62.2    67    2.8   268      8.8   992.5    0.00     698    66.9
 121   15:30   61.1    68    2.6   259      9.0   992.4    0.00     703    67.1
 121   15:40   60.7    69    2.9   264     11.8   992.3    0.00     699    67.3
 121   15:50   61.3    69    2.4   266     10.1   992.2    0.00     686    67.4
 121   16:00   61.4    69    2.6   246      7.8   992.0    0.00     701    67.5
 121   16:10   61.5    68    3.6   235      8.9   991.9    0.00     679    67.7
 121   16:20   60.7    70    3.5   232      7.5   991.9    0.00     732    67.9
 121   16:30   61.0    70    3.8   231      8.2   991.9    0.00     764    68.0
 121   16:40   59.9    72    3.2   234      9.0   991.9    0.00     864    68.1
 121   16:50   61.2    70    1.9   247      5.6   991.9    0.00     883    68.3
 121   17:00   62.1    68    2.2   239      6.4   991.8    0.00     888    68.4
 121   17:10   61.3    69    2.6   251      8.6   991.7    0.00     946    68.5
 121   17:20   59.8    73    2.3   257      7.5   991.6    0.00    1034    68.7
 121   17:30   60.4    72    2.2   238      5.3   991.5    0.00    1083    68.8
 121   17:40   59.9    72    1.8   244      5.5   991.5    0.00    1155    68.9
 121   17:50   59.0    74    2.4   257      8.0   991.6    0.00    1235    69.0
 121   18:00   57.9    76    2.5   283      7.2   991.6    0.00    1333    69.0
 121   18:10   58.1    76    1.2   281      3.8   991.5    0.00    1404    69.1
 121   18:20   57.5    77    1.9   255      4.0   991.4    0.00    1458    69.2
 121   18:30   56.0    79    2.0   253      5.4   991.5    0.00    1503    69.2
 121   18:40   54.5    83    1.7   255      8.9   991.4    0.00    1541    69.3
 121   18:50   53.3    86    2.3   216      4.3   991.6    0.00    1607    69.3
 121   19:00   52.3    88    2.2   205      7.8   991.7    0.00    1727    69.4
 121   19:10   51.9    90    0.9   266      5.6   991.8    0.00    1901    69.4
 121   19:20   51.7    90    1.3   278      4.7   992.0    0.00    2072    69.3
 121   19:30   51.5    91    0.8   166      3.7   992.2    0.00    2214    69.3
 121   19:40   51.5    91    2.0   171      4.1   992.2    0.00    2323    69.3
 121   19:50   51.3    91    1.3   194      4.7   992.3    0.00    2416    69.2
 121   20:00   51.1    91    1.1   169      4.7   992.4    0.00    2473    69.2
 121   20:10   50.8    91    2.3   196      6.7   992.5    0.00    2524    69.2
 121   20:20   50.5    91    2.5   201      7.9   992.8    0.00    2582    69.1
 121   20:30   50.2    92    1.9   166      6.3   992.9    0.00    2612    69.1
 121   20:40   50.0    92    2.2   309      7.1   993.0    0.00    2656    69.0
 121   20:50   49.7    92    3.0   194      7.1   993.2    0.00    2660    69.0
 121   21:00   49.6    93    1.2   284      3.9   993.2    0.00    2670    68.9
 121   21:10   49.4    94    1.7   264      4.5   993.2    0.00    2695    68.8
 121   21:20   49.3    95    1.5   298      4.4   993.2    0.00    2710    68.8
 121   21:30   49.2    96    1.3   301      3.4   993.2    0.00    2709    68.7
 121   21:40   49.0    97    1.0   307      2.6   993.2    0.00    2710    68.6
 121   21:50   49.0    97    1.2   305      3.7   993.1    0.00    2680    68.6
 121   22:00   48.8    98    1.4   201      4.9   993.1    0.00    2662    68.5
 121   22:10   48.8    98    1.6   292      3.7   993.0    0.00    2664    68.5
 121   22:20   48.6    99    1.3   313      4.7   993.0    0.00    2668    68.4
 121   22:30   48.6   100    1.4   319      2.9   993.1    0.00    2673    68.3
 121   22:40   48.4   100    2.0   288      4.4   993.2    0.00    2670    68.3
 121   22:50   48.4   100    1.1   322      3.0   993.2    0.00    2640    68.2
 121   23:00   48.3   100    1.5   282      3.4   993.0    0.00    2628    68.1
 121   23:10   48.3   100    1.9   254      6.9   992.9    0.00    2621    68.0
 121   23:20   48.2   100    1.9   328      3.9   992.9    0.00    2621    68.0
 121   23:30   48.2   100    1.8   339      4.0   992.8    0.00    2602    67.9
 121   23:40   48.0   100    2.2   357      3.9   992.7    0.00    2578    67.8
 121   23:50   47.8   100    1.8   331      4.5   992.7    0.00    2570    67.8
 122    0:00   47.5   100    1.3   251      4.7   992.8    0.00    2561    67.7
 122    0:10   47.2   100    1.2   310      3.0   992.8    0.00    2544    67.6
 122    0:20   46.8   100    2.4   336      6.7   992.7    0.00    2536    67.6
 122    0:30   46.3   100    5.5     7      8.6   992.5    0.00    2541    67.5
 122    0:40   45.8   100    5.6     8     10.7   992.4    0.00    2543    67.4
 122    0:50   45.4   100    3.7   252      9.0   992.5    0.00    2537    67.4
 122    1:00   45.2   100    2.8   118      6.5   992.3    0.00    2541    67.3
 122    1:10   44.8   100    2.6   349      5.5   992.1    0.00    2524    67.2
 122    1:20   44.5   100    2.9   341      5.0   992.0    0.00    2545    67.2
 122    1:30   44.0   100    2.0   344      5.0   992.1    0.00    2536    67.1
 122    1:40   43.6   100    1.4   300      4.6   992.1    0.00    2528    67.1
 122    1:50   43.1   100    1.5   236      4.7   992.0    0.00    2518    67.0
 122    2:00   42.7   100    2.5   226      5.8   991.9    0.00    2508    67.0
 122    2:10   42.3   100    2.4   233      4.3   992.0    0.00    2500    66.9
 122    2:20   42.1   100    0.4   258      2.7   992.0    0.00    2523    66.8
 122    2:30   42.0   100    0.8   232      2.5   992.1    0.00    2506    66.7
 122    2:40   41.9   100    0.2   296      1.9   992.1    0.00    2513    66.7
 122    2:50   41.8   100    0.6   280      2.7   992.0    0.00    2515    66.6
 122    3:00   41.6   100    1.6   253      4.3   992.0    0.00    2499    66.5
 122    3:10   41.4   100    0.9   275      2.8   992.0    0.00    2494    66.5
 122    3:20   41.1   100    0.9   258      2.3   991.8    0.00    2498    66.5
 122    3:30   40.9   100    1.6   281      3.8   991.8    0.00    2504    66.4
 122    3:40   40.6   100    1.5   324      2.8   991.8    0.00    2527    66.3
 122    3:50   40.3   100    1.1   296      2.4   991.8    0.00    2529    66.3
 122    4:00   40.2   100    1.4   231      3.8   992.0    0.00    2537    66.2
 122    4:10   40.2   100    1.1   201      2.2   992.1    0.00    2530    66.2
 122    4:20   40.2   100    1.1   162      2.8   992.2    0.00    2539    66.1
 122    4:30   40.1   100    1.1   215      2.7   992.3    0.00    2522    66.1
 122    4:40   40.2   100    0.4     5      1.2   992.4    0.00    2523    66.0
 122    4:50   40.0   100    1.5   107      3.4   992.3    0.00    2521    66.0
 122    5:00   40.0   100    0.8   109      2.4   992.4    0.00    2511    65.9
 122    5:10   40.0    99    0.2   114      1.5   992.3    0.00    2521    65.9
 122    5:20   40.1    98    1.3   207      3.4   992.3    0.00    2531    65.8
 122    5:30   40.1    98    1.0   175      2.7   992.2    0.00    2526    65.8
 122    5:40   39.9    97    1.5   129      4.4   992.1    0.00    2513    65.7
 122    5:50   39.9    96    1.3   281      3.4   992.1    0.00    2526    65.7
 122    6:00   40.0    96    1.5   148      3.7   992.1    0.00    2519    65.6
 122    6:10   40.1    94    0.8   137      2.3   992.2    0.00    2496    65.6
 122    6:20   40.3    93    1.1   139      3.4   992.3    0.00    2487    65.5
 122    6:30   40.3    92    2.4    94      4.5   992.5    0.00    2443    65.5
 122    6:40   40.4    92    0.9    21      2.6   992.7    0.00    2451    65.4
 122    6:50   40.9    91    1.1   285      2.0   992.9    0.00    2441    65.4
 122    7:00   41.1    89    1.1   142      3.4   993.0    0.00    2365    65.4
 122    7:10   41.3    87    1.2   156      3.7   993.2    0.00    2303    65.4
 122    7:20   41.5    87    0.9   168      2.4   993.2    0.00    2274    65.3
 122    7:30   41.8    87    1.0   192      2.1   993.3    0.00    2250    65.3
 122    7:40   42.1    86    1.3   191      3.7   993.5    0.00    2188    65.2
 122    7:50   42.2    86    1.9   208      3.9   993.6    0.00    2144    65.2
 122    8:00   42.2    86    1.6   219      3.7   993.7    0.00    2111    65.2
 122    8:10   42.4    86    2.9   218      5.9   993.7    0.00    2060    65.1
 122    8:20   42.1    88    3.9   221      5.6   993.9    0.00    2053    65.1
 122    8:30   42.1    88    2.8   223      5.7   994.0    0.00    2048    65.1
 122    8:40   42.3    88    1.6   225      4.5   994.0    0.00    2037    65.0
 122    8:50   42.9    87    2.5   216      4.7   994.0    0.00    2010    65.0
 122    9:00   43.2    86    2.5   216      4.2   994.0    0.00    1942    65.0
 122    9:10   43.7    85    2.0   219      4.7   994.1    0.00    1888    64.9
 122    9:20   43.8    84    2.1   224      4.8   994.2    0.00    1827    64.9
 122    9:30   43.9    84    3.2   222      5.0   994.2    0.00    1741    64.9
 122    9:40   44.1    84    2.9   222      5.0   994.3    0.00    1676    64.9
 122    9:50   44.7    83    2.8   224      4.7   994.3    0.00    1599    64.9
 122   10:00   44.8    83    3.4   231      4.6   994.2    0.00    1537    64.9
 122   10:10   45.0    83    3.1   232      5.5   994.1    0.00    1487    64.9
 122   10:20   45.6    82    2.5   225      5.3   993.9    0.00    1433    64.8
 122   10:30   46.2    80    2.8   218      4.5   993.9    0.00    1334    64.8
 122   10:40   46.7    80    3.2   232      5.8   994.0    0.00    1258    64.9
 122   10:50   46.6    81    2.9   228      5.3   994.1    0.00    1217    64.9
 122   11:00   47.4    80    1.8   242      4.0   994.1    0.00    1179    64.9
 122   11:10   48.5    77    2.1   229      5.4   994.0    0.00    1075    64.9
 122   11:20   48.7    77    2.6   221      4.7   993.9    0.00    1014    64.9
 122   11:30   49.6    76    1.8   240      4.5   993.8    0.00     951    64.9
 122   11:40   49.9    76    3.4   229      5.9   993.6    0.00     919    64.9
 122   11:50   50.3    76    3.1   219      6.9   993.5    0.00     883    65.0
 122   12:00   50.9    77    4.3   218      6.5   993.4    0.00     839    65.0
 122   12:10   52.1    76    3.5   229      6.1   993.2    0.00     815    65.0
 122   12:20   53.7    73    3.0   224      6.2   993.1    0.00     677    65.0
 122   12:30   54.9    70    3.3   230      6.9   992.9    0.00     536    65.0
 122   12:40   56.0    69    3.5   238      6.9   992.9    0.00     429    65.1
 122   12:50   56.5    68    4.0   229      7.4   992.9    0.00     425    65.2
 122   13:00   55.8    70    5.9   226      9.2   993.0    0.00     466    65.3
 122   13:10   55.9    74    5.1   223      8.9   993.0    0.00     592    65.4
 122   13:20   57.6    72    5.0   232      8.1   992.8    0.00     623    65.4
 122   13:30   57.8    71    4.4   233      9.3   992.6    0.00     669    65.5
 122   13:40   58.8    69    3.2   269      6.7   992.5    0.00     678    65.6
 122   13:50   58.0    68    5.3   280     10.7   992.4    0.00     665    65.7

Return to Whale Point graphs page.


Western Regional Climate Center,wrcc@dri.edu